createdAt,value
2019-06-27T00:00:27.099Z,18.95
2019-06-27T00:01:27.066Z,18.80
2019-06-27T00:02:27.054Z,18.82
2019-06-27T00:03:27.040Z,18.79
2019-06-27T00:04:27.026Z,18.80
2019-06-27T00:05:27.060Z,18.77
2019-06-27T00:06:27.005Z,18.76
2019-06-27T00:07:27.004Z,18.74
2019-06-27T00:08:26.982Z,18.62
2019-06-27T00:09:26.967Z,18.57
2019-06-27T00:10:26.962Z,18.65
2019-06-27T00:11:26.971Z,18.55
2019-06-27T00:12:26.938Z,18.58
2019-06-27T00:13:26.925Z,18.54
2019-06-27T00:14:26.922Z,18.61
2019-06-27T00:15:26.901Z,18.47
2019-06-27T00:16:26.918Z,18.65
2019-06-27T00:17:26.872Z,18.55
2019-06-27T00:18:26.873Z,18.43
2019-06-27T00:19:26.847Z,18.44
2019-06-27T00:20:26.837Z,18.50
2019-06-27T00:21:26.864Z,18.43
2019-06-27T00:22:26.815Z,18.40
2019-06-27T00:23:26.804Z,18.40
2019-06-27T00:24:26.794Z,18.25
2019-06-27T00:25:26.778Z,18.36
2019-06-27T00:26:26.784Z,18.28
2019-06-27T00:27:26.772Z,18.21
2019-06-27T00:28:26.744Z,18.22
2019-06-27T00:29:26.729Z,18.17
2019-06-27T00:30:26.747Z,18.18
2019-06-27T00:31:26.713Z,18.12
2019-06-27T00:32:26.695Z,18.09
2019-06-27T00:33:26.696Z,18.19
2019-06-27T00:34:26.672Z,18.09
2019-06-27T00:35:26.664Z,18.04
2019-06-27T00:36:26.669Z,17.97
2019-06-27T00:37:26.662Z,17.95
2019-06-27T00:38:26.624Z,18.10
2019-06-27T00:39:26.612Z,18.13
2019-06-27T00:40:26.600Z,18.00
2019-06-27T00:41:26.608Z,18.07
2019-06-27T00:42:26.577Z,17.92
2019-06-27T00:43:26.567Z,17.99
2019-06-27T00:44:26.555Z,18.07
2019-06-27T00:45:26.543Z,18.04
2019-06-27T00:46:26.562Z,17.97
2019-06-27T00:47:26.517Z,17.92
2019-06-27T00:48:26.509Z,17.85
2019-06-27T00:49:26.492Z,17.85
2019-06-27T00:50:26.482Z,17.73
2019-06-27T00:51:29.448Z,17.66
2019-06-27T00:52:26.477Z,17.69
2019-06-27T00:53:26.449Z,17.81
2019-06-27T00:54:26.431Z,17.70
2019-06-27T00:55:26.424Z,17.71
2019-06-27T00:56:26.412Z,17.62
2019-06-27T00:57:26.423Z,17.63
2019-06-27T00:58:26.389Z,17.54
2019-06-27T00:59:26.378Z,17.62
2019-06-27T01:00:26.361Z,17.57
2019-06-27T01:01:26.354Z,17.57
2019-06-27T01:02:26.365Z,17.69
2019-06-27T01:03:26.324Z,17.63
2019-06-27T01:04:26.318Z,17.54
2019-06-27T01:05:26.304Z,17.57
2019-06-27T01:06:26.296Z,17.53
2019-06-27T01:07:26.299Z,17.48
2019-06-27T01:08:26.265Z,17.48
2019-06-27T01:09:26.258Z,17.48
2019-06-27T01:10:26.247Z,17.47
2019-06-27T01:11:26.229Z,17.48
2019-06-27T01:12:26.247Z,17.36
2019-06-27T01:13:26.209Z,17.40
2019-06-27T01:14:26.193Z,17.22
2019-06-27T01:15:26.205Z,17.23
2019-06-27T01:16:26.178Z,17.25
2019-06-27T01:17:26.161Z,17.29
2019-06-27T01:18:26.165Z,17.17
2019-06-27T01:19:26.197Z,17.20
2019-06-27T01:20:26.127Z,17.13
2019-06-27T01:21:26.117Z,17.15
2019-06-27T01:22:26.111Z,17.13
2019-06-27T01:23:26.109Z,17.15
2019-06-27T01:24:26.078Z,17.17
2019-06-27T01:25:26.072Z,17.03
2019-06-27T01:26:26.055Z,17.10
2019-06-27T01:27:30.039Z,17.11
2019-06-27T01:28:26.057Z,17.13
2019-06-27T01:29:26.015Z,17.07
2019-06-27T01:30:26.020Z,17.00
2019-06-27T01:31:25.992Z,17.04
2019-06-27T01:32:25.979Z,16.98
2019-06-27T01:33:25.988Z,16.89
2019-06-27T01:34:25.995Z,16.86
2019-06-27T01:35:25.943Z,16.90
2019-06-27T01:36:25.929Z,16.86
2019-06-27T01:37:25.987Z,16.85
2019-06-27T01:38:25.910Z,16.75
2019-06-27T01:39:25.896Z,16.88
2019-06-27T01:40:25.916Z,16.77
2019-06-27T01:41:25.874Z,16.71
2019-06-27T01:42:25.865Z,16.70
2019-06-27T01:43:25.856Z,16.75
2019-06-27T01:44:25.843Z,16.68
2019-06-27T01:45:25.849Z,16.68
2019-06-27T01:46:25.825Z,16.65
2019-06-27T01:47:25.804Z,16.60
2019-06-27T01:48:25.796Z,16.62
2019-06-27T01:49:25.784Z,16.60
2019-06-27T01:50:25.812Z,16.60
2019-06-27T01:51:25.754Z,16.58
2019-06-27T01:52:25.758Z,16.50
2019-06-27T01:53:25.739Z,16.53
2019-06-27T01:54:25.731Z,16.62
2019-06-27T01:55:25.731Z,16.65
2019-06-27T01:56:25.699Z,16.70
2019-06-27T01:57:25.698Z,16.67
2019-06-27T01:58:25.671Z,16.63
2019-06-27T01:59:25.666Z,16.71
2019-06-27T02:00:25.706Z,16.62
2019-06-27T02:01:25.647Z,16.68
2019-06-27T02:02:25.637Z,16.71
2019-06-27T02:03:25.616Z,16.63
2019-06-27T02:04:25.613Z,16.71
2019-06-27T02:05:25.622Z,16.59
2019-06-27T02:06:25.586Z,16.59
2019-06-27T02:07:25.575Z,16.65
2019-06-27T02:08:25.556Z,16.63
2019-06-27T02:09:25.548Z,16.86
2019-06-27T02:10:25.587Z,16.81
2019-06-27T02:11:25.524Z,16.75
2019-06-27T02:12:25.514Z,16.92
2019-06-27T02:13:25.540Z,16.92
2019-06-27T02:14:25.497Z,16.95
2019-06-27T02:15:25.521Z,16.83
2019-06-27T02:16:25.467Z,17.03
2019-06-27T02:17:25.453Z,16.89
2019-06-27T02:18:25.443Z,17.00
2019-06-27T02:19:25.442Z,17.07
2019-06-27T02:20:25.422Z,17.03
2019-06-27T02:21:25.425Z,16.99
2019-06-27T02:22:25.390Z,17.07
2019-06-27T02:23:25.384Z,17.04
2019-06-27T02:24:25.381Z,17.10
2019-06-27T02:25:25.358Z,17.08
2019-06-27T02:26:25.367Z,17.04
2019-06-27T02:27:25.341Z,17.08
2019-06-27T02:28:25.324Z,17.14
2019-06-27T02:29:25.311Z,17.18
2019-06-27T02:30:25.300Z,17.20
2019-06-27T02:31:25.321Z,17.25
2019-06-27T02:32:25.285Z,17.29
2019-06-27T02:33:25.266Z,17.32
2019-06-27T02:34:25.271Z,17.32
2019-06-27T02:35:25.244Z,17.18
2019-06-27T02:36:25.252Z,17.20
2019-06-27T02:37:25.221Z,17.30
2019-06-27T02:38:25.203Z,17.23
2019-06-27T02:39:25.198Z,17.23
2019-06-27T02:40:25.182Z,17.18
2019-06-27T02:41:25.174Z,17.28
2019-06-27T02:42:25.193Z,17.30
2019-06-27T02:43:25.153Z,17.29
2019-06-27T02:44:25.139Z,17.23
2019-06-27T02:45:25.123Z,17.08
2019-06-27T02:46:25.125Z,17.07
2019-06-27T02:47:25.133Z,17.06
2019-06-27T02:48:25.089Z,17.10
2019-06-27T02:49:25.077Z,17.11
2019-06-27T02:50:25.066Z,17.17
2019-06-27T02:51:25.058Z,17.23
2019-06-27T02:52:25.079Z,17.33
2019-06-27T02:53:25.033Z,17.25
2019-06-27T02:54:25.019Z,17.23
2019-06-27T02:55:25.014Z,17.18
2019-06-27T02:56:25.008Z,17.22
2019-06-27T02:57:25.053Z,17.20
2019-06-27T02:58:31.167Z,17.07
2019-06-27T02:59:25.967Z,17.23
2019-06-27T03:00:24.948Z,17.22
2019-06-27T03:01:24.943Z,17.22
2019-06-27T03:02:24.946Z,17.22
2019-06-27T03:03:24.916Z,17.18
2019-06-27T03:04:24.903Z,17.17
2019-06-27T03:05:24.898Z,17.17
2019-06-27T03:06:24.887Z,17.20
2019-06-27T03:07:24.910Z,17.11
2019-06-27T03:08:24.851Z,17.07
2019-06-27T03:09:24.847Z,17.07
2019-06-27T03:10:24.830Z,17.00
2019-06-27T03:11:24.815Z,17.03
2019-06-27T03:12:24.810Z,17.03
2019-06-27T03:13:24.820Z,16.86
2019-06-27T03:14:24.787Z,16.96
2019-06-27T03:15:24.765Z,16.93
2019-06-27T03:16:24.751Z,16.85
2019-06-27T03:17:24.757Z,17.08
2019-06-27T03:18:24.762Z,16.92
2019-06-27T03:19:24.730Z,16.98
2019-06-27T03:20:24.735Z,17.00
2019-06-27T03:21:24.703Z,17.08
2019-06-27T03:22:24.707Z,17.13
2019-06-27T03:23:24.716Z,17.28
2019-06-27T03:24:24.661Z,17.28
2019-06-27T03:25:24.649Z,17.25
2019-06-27T03:26:24.636Z,17.15
2019-06-27T03:27:24.628Z,17.20
2019-06-27T03:28:24.642Z,17.15
2019-06-27T03:29:24.612Z,17.00
2019-06-27T03:30:24.602Z,17.04
2019-06-27T03:31:24.580Z,17.20
2019-06-27T03:32:24.572Z,17.17
2019-06-27T03:33:24.575Z,17.14
2019-06-27T03:34:24.575Z,17.22
2019-06-27T03:35:24.533Z,17.23
2019-06-27T03:36:24.517Z,17.32
2019-06-27T03:37:24.509Z,17.30
2019-06-27T03:38:24.495Z,17.22
2019-06-27T03:39:24.514Z,17.25
2019-06-27T03:40:24.481Z,17.22
2019-06-27T03:41:24.456Z,17.30
2019-06-27T03:42:24.453Z,17.28
2019-06-27T03:43:24.434Z,17.29
2019-06-27T03:44:24.444Z,17.43
2019-06-27T03:45:24.407Z,17.44
2019-06-27T03:46:24.423Z,17.53
2019-06-27T03:47:24.380Z,17.40
2019-06-27T03:48:24.370Z,17.47
2019-06-27T03:49:24.366Z,17.40
2019-06-27T03:50:24.383Z,17.32
2019-06-27T03:51:24.345Z,17.43
2019-06-27T03:52:24.344Z,17.43
2019-06-27T03:53:24.336Z,17.36
2019-06-27T03:54:24.328Z,17.28
2019-06-27T03:55:24.322Z,17.40
2019-06-27T03:56:24.279Z,17.33
2019-06-27T03:57:24.265Z,17.23
2019-06-27T03:58:24.258Z,17.23
2019-06-27T03:59:24.243Z,17.11
2019-06-27T04:00:24.261Z,17.04
2019-06-27T04:01:24.226Z,16.93
2019-06-27T04:02:24.209Z,17.06
2019-06-27T04:03:24.200Z,17.07
2019-06-27T04:04:24.210Z,16.92
2019-06-27T04:05:24.194Z,16.90
2019-06-27T04:06:24.160Z,16.99
2019-06-27T04:07:24.158Z,17.03
2019-06-27T04:08:24.141Z,16.95
2019-06-27T04:09:24.130Z,16.96
2019-06-27T04:10:24.139Z,17.06
2019-06-27T04:11:24.103Z,17.14
2019-06-27T04:12:24.098Z,17.10
2019-06-27T04:13:24.079Z,17.14
2019-06-27T04:14:24.080Z,17.14
2019-06-27T04:15:24.063Z,17.17
2019-06-27T04:16:24.063Z,17.22
2019-06-27T04:17:24.034Z,17.20
2019-06-27T04:18:24.030Z,17.07
2019-06-27T04:19:24.017Z,17.13
2019-06-27T04:20:23.992Z,17.10
2019-06-27T04:21:24.018Z,17.00
2019-06-27T04:22:23.983Z,17.03
2019-06-27T04:23:23.956Z,17.03
2019-06-27T04:24:23.945Z,16.90
2019-06-27T04:25:23.949Z,16.99
2019-06-27T04:26:23.929Z,16.99
2019-06-27T04:27:23.945Z,16.99
2019-06-27T04:28:23.905Z,16.93
2019-06-27T04:29:33.616Z,17.04
2019-06-27T04:30:24.881Z,17.07
2019-06-27T04:31:23.975Z,16.90
2019-06-27T04:32:23.851Z,17.04
2019-06-27T04:33:23.843Z,16.99
2019-06-27T04:34:23.825Z,16.99
2019-06-27T04:35:23.831Z,16.99
2019-06-27T04:36:23.829Z,17.06
2019-06-27T04:37:23.830Z,17.07
2019-06-27T04:38:23.783Z,17.08
2019-06-27T04:39:23.770Z,17.08
2019-06-27T04:40:23.768Z,17.10
2019-06-27T04:41:23.748Z,17.23
2019-06-27T04:42:23.759Z,17.20
2019-06-27T04:43:23.726Z,17.18
2019-06-27T04:44:23.714Z,17.22
2019-06-27T04:45:23.709Z,17.20
2019-06-27T04:46:23.706Z,17.33
2019-06-27T04:47:23.705Z,17.33
2019-06-27T04:48:23.671Z,17.46
2019-06-27T04:49:23.653Z,17.35
2019-06-27T04:50:23.645Z,17.44
2019-06-27T04:51:23.639Z,17.43
2019-06-27T04:52:23.648Z,17.38
2019-06-27T04:53:23.615Z,17.43
2019-06-27T04:54:23.600Z,17.51
2019-06-27T04:55:23.577Z,17.47
2019-06-27T04:56:23.574Z,17.43
2019-06-27T04:57:23.590Z,17.46
2019-06-27T04:58:23.547Z,17.55
2019-06-27T04:59:23.533Z,17.55
2019-06-27T05:00:23.517Z,17.62
2019-06-27T05:01:23.527Z,17.69
2019-06-27T05:02:23.526Z,17.69
2019-06-27T05:03:23.482Z,17.81
2019-06-27T05:04:23.470Z,17.76
2019-06-27T05:05:23.460Z,17.82
2019-06-27T05:06:23.470Z,17.76
2019-06-27T05:07:23.477Z,17.73
2019-06-27T05:08:23.428Z,17.89
2019-06-27T05:09:23.426Z,17.88
2019-06-27T05:10:23.398Z,17.95
2019-06-27T05:11:23.397Z,17.94
2019-06-27T05:12:23.407Z,17.94
2019-06-27T05:13:23.382Z,18.19
2019-06-27T05:14:23.356Z,18.07
2019-06-27T05:15:23.343Z,17.99
2019-06-27T05:16:23.327Z,18.09
2019-06-27T05:17:23.346Z,18.07
2019-06-27T05:18:23.304Z,18.06
2019-06-27T05:19:23.297Z,18.12
2019-06-27T05:20:23.282Z,18.24
2019-06-27T05:21:23.284Z,18.22
2019-06-27T05:22:23.375Z,18.29
2019-06-27T05:23:23.246Z,18.28
2019-06-27T05:24:23.234Z,18.21
2019-06-27T05:25:23.249Z,18.25
2019-06-27T05:26:23.217Z,18.31
2019-06-27T05:27:23.204Z,18.29
2019-06-27T05:28:23.220Z,18.39
2019-06-27T05:29:23.178Z,18.40
2019-06-27T05:30:23.164Z,18.33
2019-06-27T05:31:23.160Z,18.46
2019-06-27T05:32:23.143Z,18.47
2019-06-27T05:33:23.161Z,18.58
2019-06-27T05:34:23.126Z,18.61
2019-06-27T05:35:23.108Z,18.58
2019-06-27T05:36:23.100Z,18.55
2019-06-27T05:37:23.086Z,18.64
2019-06-27T05:38:23.097Z,18.74
2019-06-27T05:39:23.058Z,18.68
2019-06-27T05:40:23.047Z,18.58
2019-06-27T05:41:23.049Z,18.74
2019-06-27T05:42:23.022Z,18.70
2019-06-27T05:43:23.132Z,18.83
2019-06-27T05:44:23.009Z,18.86
2019-06-27T05:45:23.007Z,18.91
2019-06-27T05:46:22.992Z,18.87
2019-06-27T05:47:22.984Z,18.86
2019-06-27T05:48:22.954Z,18.70
2019-06-27T05:49:22.996Z,18.84
2019-06-27T05:50:22.934Z,18.82
2019-06-27T05:51:22.919Z,18.72
2019-06-27T05:52:22.907Z,18.80
2019-06-27T05:53:22.898Z,18.83
2019-06-27T05:54:22.909Z,18.86
2019-06-27T05:55:22.870Z,18.90
2019-06-27T05:56:22.861Z,18.86
2019-06-27T05:57:22.850Z,18.95
2019-06-27T05:58:22.856Z,18.87
2019-06-27T05:59:22.831Z,19.32
2019-06-27T06:00:28.874Z,19.46
2019-06-27T06:01:23.807Z,19.68
2019-06-27T06:02:22.798Z,19.75
2019-06-27T06:03:22.803Z,19.91
2019-06-27T06:04:24.067Z,19.90
2019-06-27T06:05:22.784Z,19.84
2019-06-27T06:06:22.752Z,19.90
2019-06-27T06:07:22.739Z,19.90
2019-06-27T06:08:22.724Z,19.91
2019-06-27T06:09:22.707Z,19.97
2019-06-27T06:10:22.718Z,20.02
2019-06-27T06:11:22.688Z,20.03
2019-06-27T06:12:22.679Z,20.00
2019-06-27T06:13:22.669Z,20.05
2019-06-27T06:14:22.657Z,20.18
2019-06-27T06:15:22.661Z,20.20
2019-06-27T06:16:22.631Z,20.23
2019-06-27T06:17:22.618Z,20.13
2019-06-27T06:18:22.604Z,20.12
2019-06-27T06:19:22.596Z,19.98
2019-06-27T06:20:22.611Z,19.93
2019-06-27T06:21:22.572Z,19.91
2019-06-27T06:22:22.554Z,19.87
2019-06-27T06:23:22.550Z,19.95
2019-06-27T06:24:22.532Z,19.95
2019-06-27T06:25:22.528Z,20.00
2019-06-27T06:26:22.540Z,20.30
2019-06-27T06:27:22.499Z,20.34
2019-06-27T06:28:22.500Z,20.43
2019-06-27T06:29:22.479Z,20.23
2019-06-27T06:30:22.480Z,20.21
2019-06-27T06:31:22.483Z,20.38
2019-06-27T06:32:22.446Z,20.51
2019-06-27T06:33:22.437Z,20.95
2019-06-27T06:34:22.425Z,21.38
2019-06-27T06:35:22.406Z,22.09
2019-06-27T06:36:22.421Z,22.69
2019-06-27T06:37:22.383Z,22.62
2019-06-27T06:38:22.388Z,22.74
2019-06-27T06:39:22.366Z,23.05
2019-06-27T06:40:22.353Z,23.70
2019-06-27T06:41:22.358Z,24.37
2019-06-27T06:42:22.325Z,24.68
2019-06-27T06:43:22.337Z,24.82
2019-06-27T06:44:22.309Z,24.67
2019-06-27T06:45:22.300Z,24.34
2019-06-27T06:46:22.306Z,23.65
2019-06-27T06:47:22.269Z,23.22
2019-06-27T06:48:22.256Z,22.86
2019-06-27T06:49:22.255Z,23.05
2019-06-27T06:50:23.477Z,23.22
2019-06-27T06:51:22.246Z,23.82
2019-06-27T06:52:22.216Z,24.75
2019-06-27T06:53:22.204Z,25.43
2019-06-27T06:54:22.198Z,25.46
2019-06-27T06:55:22.184Z,25.80
2019-06-27T06:56:22.199Z,26.09
2019-06-27T06:57:22.156Z,26.59
2019-06-27T06:58:22.146Z,27.01
2019-06-27T06:59:22.140Z,27.57
2019-06-27T07:00:22.122Z,27.67
2019-06-27T07:01:22.146Z,28.13
2019-06-27T07:02:22.112Z,28.41
2019-06-27T07:03:22.090Z,28.47
2019-06-27T07:04:22.112Z,28.14
2019-06-27T07:05:22.076Z,28.07
2019-06-27T07:06:22.170Z,28.01
2019-06-27T07:07:22.049Z,28.09
2019-06-27T07:08:22.030Z,28.53
2019-06-27T07:09:22.092Z,28.80
2019-06-27T07:10:22.010Z,28.95
2019-06-27T07:11:21.994Z,28.91
2019-06-27T07:12:22.035Z,29.04
2019-06-27T07:13:22.015Z,28.96
2019-06-27T07:14:21.966Z,29.22
2019-06-27T07:15:21.964Z,29.38
2019-06-27T07:16:21.942Z,29.57
2019-06-27T07:17:21.970Z,29.22
2019-06-27T07:18:21.923Z,29.22
2019-06-27T07:19:21.911Z,29.65
2019-06-27T07:20:21.909Z,29.65
2019-06-27T07:21:21.901Z,29.74
2019-06-27T07:22:21.901Z,29.90
2019-06-27T07:23:21.866Z,29.96
2019-06-27T07:24:21.872Z,29.99
2019-06-27T07:25:21.854Z,30.40
2019-06-27T07:26:22.524Z,30.71
2019-06-27T07:27:21.882Z,31.27
2019-06-27T07:28:21.832Z,31.46
2019-06-27T07:29:21.938Z,31.62
2019-06-27T07:30:21.802Z,31.57
2019-06-27T07:31:21.822Z,31.54
2019-06-27T07:32:21.956Z,31.64
2019-06-27T07:33:21.768Z,31.77
2019-06-27T07:34:21.751Z,31.76
2019-06-27T07:35:21.820Z,31.68
2019-06-27T07:36:21.739Z,31.58
2019-06-27T07:37:21.829Z,31.92
2019-06-27T07:38:21.742Z,32.02
2019-06-27T07:39:21.703Z,32.02
2019-06-27T07:40:21.693Z,31.95
2019-06-27T07:41:21.690Z,31.49
2019-06-27T07:42:21.765Z,31.31
2019-06-27T07:43:21.676Z,30.87
2019-06-27T07:44:21.702Z,30.75
2019-06-27T07:45:21.631Z,30.84
2019-06-27T07:46:25.450Z,30.90
2019-06-27T07:47:21.674Z,31.17
2019-06-27T07:48:21.612Z,31.61
2019-06-27T07:49:21.594Z,31.72
2019-06-27T07:50:21.592Z,32.00
2019-06-27T07:51:21.572Z,32.20
2019-06-27T07:52:21.608Z,32.35
2019-06-27T07:53:21.554Z,32.76
2019-06-27T07:54:21.546Z,33.33
2019-06-27T07:55:21.541Z,33.78
2019-06-27T07:56:21.526Z,34.09
2019-06-27T07:57:21.614Z,34.11
2019-06-27T07:58:21.503Z,33.92
2019-06-27T07:59:21.487Z,33.73
2019-06-27T08:00:21.489Z,33.01
2019-06-27T08:01:34.461Z,33.01
2019-06-27T08:02:22.501Z,33.20
2019-06-27T08:03:21.459Z,32.59
2019-06-27T08:04:21.437Z,32.81
2019-06-27T08:05:21.426Z,32.81
2019-06-27T08:06:21.430Z,32.81
2019-06-27T08:07:22.070Z,33.07
2019-06-27T08:08:21.398Z,33.37
2019-06-27T08:09:21.378Z,33.08
2019-06-27T08:10:21.382Z,32.54
2019-06-27T08:11:21.361Z,32.80
2019-06-27T08:12:21.403Z,33.43
2019-06-27T08:13:21.348Z,33.36
2019-06-27T08:14:21.328Z,33.63
2019-06-27T08:15:21.464Z,33.90
2019-06-27T08:16:21.508Z,34.24
2019-06-27T08:17:21.339Z,34.23
2019-06-27T08:18:21.577Z,34.17
2019-06-27T08:19:21.270Z,34.42
2019-06-27T08:20:21.320Z,34.63
2019-06-27T08:21:21.247Z,34.76
2019-06-27T08:22:21.263Z,35.10
2019-06-27T08:23:21.244Z,34.98
2019-06-27T08:24:21.229Z,35.35
2019-06-27T08:25:21.248Z,35.39
2019-06-27T08:26:21.219Z,35.28
2019-06-27T08:27:21.186Z,34.84
2019-06-27T08:28:21.246Z,34.35
2019-06-27T08:29:21.181Z,33.70
2019-06-27T08:30:21.180Z,33.39
2019-06-27T08:31:21.163Z,33.85
2019-06-27T08:32:21.137Z,34.17
2019-06-27T08:33:21.168Z,34.58
2019-06-27T08:34:21.138Z,35.10
2019-06-27T08:35:21.138Z,35.48
2019-06-27T08:36:21.102Z,35.85
2019-06-27T08:37:21.111Z,35.92
2019-06-27T08:38:21.121Z,35.84
2019-06-27T08:39:21.066Z,35.93
2019-06-27T08:40:21.064Z,35.57
2019-06-27T08:41:21.055Z,35.25
2019-06-27T08:42:21.046Z,35.18
2019-06-27T08:43:21.030Z,35.32
2019-06-27T08:44:21.051Z,35.35
2019-06-27T08:45:21.015Z,35.39
2019-06-27T08:46:21.011Z,35.36
2019-06-27T08:47:20.999Z,35.60
2019-06-27T08:48:20.989Z,35.54
2019-06-27T08:49:21.026Z,35.74
2019-06-27T08:50:20.968Z,35.45
2019-06-27T08:51:20.950Z,35.48
2019-06-27T08:52:20.957Z,35.52
2019-06-27T08:53:21.053Z,35.52
2019-06-27T08:54:20.957Z,35.70
2019-06-27T08:55:20.909Z,35.25
2019-06-27T08:56:20.894Z,35.30
2019-06-27T08:57:20.885Z,35.62
2019-06-27T08:58:20.913Z,35.82
2019-06-27T08:59:21.013Z,36.26
2019-06-27T09:00:21.057Z,36.54
2019-06-27T09:01:20.861Z,36.14
2019-06-27T09:02:20.840Z,36.48
2019-06-27T09:03:20.831Z,36.58
2019-06-27T09:04:20.820Z,36.77
2019-06-27T09:05:20.840Z,37.07
2019-06-27T09:06:21.226Z,36.83
2019-06-27T09:07:20.792Z,36.57
2019-06-27T09:08:20.793Z,36.51
2019-06-27T09:09:20.769Z,36.33
2019-06-27T09:10:20.780Z,36.39
2019-06-27T09:11:20.767Z,36.33
2019-06-27T09:12:20.739Z,36.42
2019-06-27T09:13:20.739Z,36.54
2019-06-27T09:14:20.720Z,36.45
2019-06-27T09:15:20.777Z,36.63
2019-06-27T09:16:20.709Z,36.20
2019-06-27T09:17:20.713Z,36.43
2019-06-27T09:18:20.703Z,36.41
2019-06-27T09:19:20.707Z,36.14
2019-06-27T09:20:20.759Z,36.15
2019-06-27T09:21:20.691Z,35.92
2019-06-27T09:22:20.685Z,36.08
2019-06-27T09:23:20.662Z,36.39
2019-06-27T09:24:20.635Z,36.60
2019-06-27T09:25:20.685Z,36.86
2019-06-27T09:26:20.623Z,37.16
2019-06-27T09:27:20.619Z,37.42
2019-06-27T09:28:20.608Z,37.92
2019-06-27T09:29:20.581Z,38.20
2019-06-27T09:30:20.666Z,37.86
2019-06-27T09:31:20.590Z,37.01
2019-06-27T09:32:25.256Z,36.64
2019-06-27T09:33:21.553Z,36.15
2019-06-27T09:34:21.636Z,36.30
2019-06-27T09:35:20.563Z,36.79
2019-06-27T09:36:20.551Z,37.14
2019-06-27T09:37:20.510Z,37.31
2019-06-27T09:38:20.514Z,37.35
2019-06-27T09:39:20.538Z,37.88
2019-06-27T09:40:20.556Z,38.17
2019-06-27T09:41:20.494Z,38.32
2019-06-27T09:42:20.462Z,38.03
2019-06-27T09:43:20.450Z,37.48
2019-06-27T09:44:20.436Z,37.55
2019-06-27T09:45:20.463Z,37.86
2019-06-27T09:46:20.420Z,37.95
2019-06-27T09:47:20.407Z,38.24
2019-06-27T09:48:20.405Z,38.33
2019-06-27T09:49:20.397Z,38.64
2019-06-27T09:50:21.653Z,38.66
2019-06-27T09:51:20.370Z,38.87
2019-06-27T09:52:20.363Z,38.39
2019-06-27T09:53:20.353Z,37.67
2019-06-27T09:54:20.348Z,37.47
2019-06-27T09:55:20.339Z,37.38
2019-06-27T09:56:20.349Z,37.41
2019-06-27T09:57:20.335Z,37.61
2019-06-27T09:58:20.307Z,37.86
2019-06-27T09:59:20.301Z,38.08
2019-06-27T10:00:20.289Z,38.29
2019-06-27T10:01:20.307Z,37.85
2019-06-27T10:02:20.267Z,37.58
2019-06-27T10:03:20.260Z,38.12
2019-06-27T10:04:20.257Z,37.89
2019-06-27T10:05:20.244Z,36.57
2019-06-27T10:06:20.265Z,35.01
2019-06-27T10:07:20.231Z,34.76
2019-06-27T10:08:20.229Z,35.25
2019-06-27T10:09:20.233Z,36.01
2019-06-27T10:10:20.203Z,36.64
2019-06-27T10:11:20.199Z,37.21
2019-06-27T10:12:20.205Z,36.52
2019-06-27T10:13:20.204Z,36.19
2019-06-27T10:14:20.185Z,36.72
2019-06-27T10:15:20.161Z,37.12
2019-06-27T10:16:20.145Z,37.67
2019-06-27T10:17:20.158Z,37.93
2019-06-27T10:18:20.126Z,38.34
2019-06-27T10:19:20.114Z,38.03
2019-06-27T10:20:20.102Z,38.01
2019-06-27T10:21:20.102Z,37.99
2019-06-27T10:22:20.113Z,38.07
2019-06-27T10:23:20.079Z,38.03
2019-06-27T10:24:20.075Z,37.92
2019-06-27T10:25:20.064Z,37.68
2019-06-27T10:26:20.054Z,37.61
2019-06-27T10:27:20.092Z,37.88
2019-06-27T10:28:20.054Z,38.26
2019-06-27T10:29:20.089Z,38.15
2019-06-27T10:30:20.030Z,38.24
2019-06-27T10:31:20.041Z,37.99
2019-06-27T10:32:20.065Z,38.10
2019-06-27T10:33:20.020Z,38.33
2019-06-27T10:34:19.990Z,38.29
2019-06-27T10:35:20.009Z,38.70
2019-06-27T10:36:19.987Z,38.90
2019-06-27T10:37:20.021Z,38.96
2019-06-27T10:38:19.962Z,39.08
2019-06-27T10:39:19.934Z,39.28
2019-06-27T10:40:19.938Z,39.35
2019-06-27T10:41:19.926Z,39.55
2019-06-27T10:42:19.945Z,39.71
2019-06-27T10:43:19.922Z,39.54
2019-06-27T10:44:19.910Z,39.49
2019-06-27T10:45:19.958Z,39.27
2019-06-27T10:46:19.887Z,39.25
2019-06-27T10:47:19.907Z,39.24
2019-06-27T10:48:19.864Z,39.17
2019-06-27T10:49:19.863Z,39.30
2019-06-27T10:50:19.986Z,39.37
2019-06-27T10:51:19.948Z,39.62
2019-06-27T10:52:19.910Z,39.73
2019-06-27T10:53:19.867Z,39.99
2019-06-27T10:54:19.838Z,40.02
2019-06-27T10:55:19.815Z,40.46
2019-06-27T10:56:19.847Z,40.47
2019-06-27T10:57:19.794Z,39.65
2019-06-27T10:58:19.781Z,39.03
2019-06-27T10:59:19.762Z,38.36
2019-06-27T11:00:19.761Z,38.42
2019-06-27T11:01:19.750Z,38.71
2019-06-27T11:02:19.803Z,38.78
2019-06-27T11:03:19.830Z,38.90
2019-06-27T11:04:19.753Z,38.86
2019-06-27T11:05:19.733Z,38.96
2019-06-27T11:06:19.713Z,38.67
2019-06-27T11:07:19.784Z,38.83
2019-06-27T11:08:19.713Z,38.76
2019-06-27T11:09:19.670Z,38.87
2019-06-27T11:10:19.684Z,38.85
2019-06-27T11:11:19.703Z,38.49
2019-06-27T11:12:19.777Z,37.96
2019-06-27T11:13:19.635Z,37.99
2019-06-27T11:14:19.631Z,38.34
2019-06-27T11:15:19.684Z,38.92
2019-06-27T11:16:19.642Z,39.39
2019-06-27T11:17:19.648Z,39.43
2019-06-27T11:18:21.360Z,39.39
2019-06-27T11:19:19.598Z,39.59
2019-06-27T11:20:19.608Z,40.08
2019-06-27T11:21:19.561Z,39.98
2019-06-27T11:22:19.633Z,39.73
2019-06-27T11:23:19.598Z,39.80
2019-06-27T11:24:19.576Z,39.61
2019-06-27T11:25:19.642Z,39.99
2019-06-27T11:26:19.557Z,40.08
2019-06-27T11:27:19.521Z,38.90
2019-06-27T11:28:19.605Z,38.61
2019-06-27T11:29:19.540Z,38.79
2019-06-27T11:30:19.535Z,39.06
2019-06-27T11:31:19.482Z,38.41
2019-06-27T11:32:19.490Z,37.80
2019-06-27T11:33:32.001Z,38.18
2019-06-27T11:34:20.472Z,38.71
2019-06-27T11:35:19.460Z,39.09
2019-06-27T11:36:19.433Z,38.71
2019-06-27T11:37:19.447Z,39.01
2019-06-27T11:38:19.483Z,39.03
2019-06-27T11:39:22.339Z,39.10
2019-06-27T11:40:19.393Z,39.28
2019-06-27T11:41:19.426Z,39.47
2019-06-27T11:42:19.378Z,39.61
2019-06-27T11:43:19.373Z,39.81
2019-06-27T11:44:19.409Z,40.00
2019-06-27T11:45:19.358Z,40.12
2019-06-27T11:46:19.350Z,40.27
2019-06-27T11:47:19.408Z,40.18
2019-06-27T11:48:19.317Z,39.37
2019-06-27T11:49:19.323Z,38.75
2019-06-27T11:50:19.340Z,37.43
2019-06-27T11:51:19.318Z,36.12
2019-06-27T11:52:19.319Z,35.40
2019-06-27T11:53:19.344Z,35.18
2019-06-27T11:54:19.413Z,35.64
2019-06-27T11:55:19.325Z,35.48
2019-06-27T11:56:19.300Z,36.39
2019-06-27T11:57:19.237Z,36.79
2019-06-27T11:58:19.218Z,37.76
2019-06-27T11:59:19.377Z,38.45
2019-06-27T12:00:19.290Z,38.95
2019-06-27T12:01:19.259Z,39.21
2019-06-27T12:02:19.211Z,38.99
2019-06-27T12:03:19.245Z,38.90
2019-06-27T12:04:19.162Z,39.30
2019-06-27T12:05:19.171Z,39.58
2019-06-27T12:06:19.138Z,39.64
2019-06-27T12:07:19.131Z,39.93
2019-06-27T12:08:19.118Z,39.36
2019-06-27T12:09:19.116Z,39.44
2019-06-27T12:10:19.169Z,39.33
2019-06-27T12:11:19.095Z,39.52
2019-06-27T12:12:19.093Z,39.62
2019-06-27T12:13:19.081Z,39.78
2019-06-27T12:14:19.067Z,39.81
2019-06-27T12:15:19.273Z,39.06
2019-06-27T12:16:19.070Z,38.92
2019-06-27T12:17:19.046Z,38.76
2019-06-27T12:18:19.026Z,39.06
2019-06-27T12:19:19.070Z,39.09
2019-06-27T12:20:19.038Z,39.10
2019-06-27T12:21:18.995Z,39.20
2019-06-27T12:22:18.989Z,39.44
2019-06-27T12:23:18.987Z,39.69
2019-06-27T12:24:18.977Z,39.70
2019-06-27T12:25:18.996Z,39.69
2019-06-27T12:26:18.955Z,39.62
2019-06-27T12:27:18.946Z,39.65
2019-06-27T12:28:18.942Z,39.93
2019-06-27T12:29:18.931Z,39.89
2019-06-27T12:30:18.915Z,40.02
2019-06-27T12:31:20.877Z,39.95
2019-06-27T12:32:18.895Z,39.98
2019-06-27T12:33:18.901Z,39.76
2019-06-27T12:34:18.882Z,38.99
2019-06-27T12:35:18.874Z,38.99
2019-06-27T12:36:18.889Z,39.03
2019-06-27T12:37:18.851Z,39.35
2019-06-27T12:38:18.847Z,39.54
2019-06-27T12:39:18.829Z,39.54
2019-06-27T12:40:18.835Z,39.20
2019-06-27T12:41:18.807Z,38.66
2019-06-27T12:42:32.101Z,38.11
2019-06-27T12:43:19.792Z,38.30
2019-06-27T12:44:18.791Z,38.60
2019-06-27T12:45:18.832Z,38.70
2019-06-27T12:46:18.765Z,38.60
2019-06-27T12:47:18.775Z,38.64
2019-06-27T12:48:18.745Z,38.53
2019-06-27T12:49:18.737Z,38.63
2019-06-27T12:50:18.735Z,38.85
2019-06-27T12:51:18.717Z,38.89
2019-06-27T12:52:18.738Z,39.24